createdAt,value
2022-11-26T00:02:23.027Z,98445.47
2022-11-26T00:04:52.795Z,98448.09
2022-11-26T00:07:26.081Z,98446.44
2022-11-26T00:09:55.108Z,98451.84
2022-11-26T00:12:27.532Z,98452.69
2022-11-26T00:14:56.481Z,98455.34
2022-11-26T00:17:24.940Z,98453.53
2022-11-26T00:19:53.222Z,98450.06
2022-11-26T00:22:27.702Z,98455.34
2022-11-26T00:24:57.049Z,98459.66
2022-11-26T00:27:29.182Z,98449.81
2022-11-26T00:29:58.510Z,98456.44
2022-11-26T00:32:27.699Z,98462.28
2022-11-26T00:34:56.094Z,98455.09
2022-11-26T00:37:29.685Z,98453.41
2022-11-26T00:39:59.046Z,98459.66
2022-11-26T00:42:28.791Z,98451.84
2022-11-26T00:44:57.170Z,98458.94
2022-11-26T00:47:25.580Z,98460.75
2022-11-26T00:49:53.863Z,98462.81
2022-11-26T00:52:34.014Z,98476.28
2022-11-26T00:55:11.245Z,98470.25
2022-11-26T00:57:40.989Z,98481.81
2022-11-26T01:00:20.438Z,98486.47
2022-11-26T01:02:49.107Z,98493.56
2022-11-26T01:05:18.252Z,98489.34
2022-11-26T01:07:47.286Z,98489.47
2022-11-26T01:10:21.095Z,98488.75
2022-11-26T01:12:52.018Z,98488.28
2022-11-26T01:15:23.644Z,98495.34
2022-11-26T01:17:53.824Z,98501.72
2022-11-26T01:20:27.685Z,98506.16
2022-11-26T01:22:57.880Z,98503.63
2022-11-26T01:25:27.735Z,98511.69
2022-11-26T01:27:57.463Z,98515.19
2022-11-26T01:30:28.635Z,98516.97
2022-11-26T01:32:56.983Z,98511.69
2022-11-26T01:35:25.205Z,98521.41
2022-11-26T01:37:53.484Z,98525.75
2022-11-26T01:41:11.752Z,98519.75
2022-11-26T01:43:44.413Z,98531.28
2022-11-26T01:46:16.822Z,98532.09
2022-11-26T01:48:46.443Z,98527.66
2022-11-26T01:51:17.193Z,98532.84
2022-11-26T01:53:51.220Z,98534.53
2022-11-26T01:56:28.376Z,98545.94
2022-11-26T01:59:04.567Z,98543.19
2022-11-26T02:01:34.314Z,98544.06
2022-11-26T02:04:14.551Z,98536.09
2022-11-26T02:06:45.316Z,98538.75
2022-11-26T02:09:14.923Z,98536.94
2022-11-26T02:11:43.658Z,98554.41
2022-11-26T02:14:17.155Z,98541.16
2022-11-26T02:17:19.439Z,98543.81
2022-11-26T02:20:26.255Z,98543.94
2022-11-26T02:23:48.091Z,98546.69
2022-11-26T02:26:54.172Z,98545.09
2022-11-26T02:29:30.948Z,98564.34
2022-11-26T02:32:07.600Z,98562.56
2022-11-26T02:34:41.850Z,98557.97
2022-11-26T02:37:16.238Z,98559.69
2022-11-26T02:39:44.574Z,98564.00
2022-11-26T02:42:27.560Z,98566.66
2022-11-26T02:44:59.237Z,98563.16
2022-11-26T02:47:30.941Z,98570.16
2022-11-26T02:50:04.194Z,98577.13
2022-11-26T02:52:34.889Z,98573.63
2022-11-26T02:55:07.579Z,98569.28
2022-11-26T02:57:43.490Z,98570.97
2022-11-26T03:00:13.310Z,98565.69
2022-11-26T03:02:48.269Z,98567.50
2022-11-26T03:05:19.166Z,98574.47
2022-11-26T03:07:49.488Z,98568.31
2022-11-26T03:10:20.232Z,98576.16
2022-11-26T03:12:48.884Z,98576.16
2022-11-26T03:15:17.351Z,98581.44
2022-11-26T03:17:47.045Z,98573.38
2022-11-26T03:20:15.710Z,98576.16
2022-11-26T03:22:44.539Z,98576.16
2022-11-26T03:25:13.182Z,98578.91
2022-11-26T03:27:41.422Z,98577.97
2022-11-26T03:30:11.211Z,98587.47
2022-11-26T03:32:39.555Z,98581.31
2022-11-26T03:35:10.405Z,98582.28
2022-11-26T03:37:38.784Z,98590.22
2022-11-26T03:40:10.068Z,98593.63
2022-11-26T03:42:38.738Z,98587.47
2022-11-26T03:45:08.332Z,98594.53
2022-11-26T03:47:36.632Z,98597.19
2022-11-26T03:50:05.750Z,98591.91
2022-11-26T03:52:35.490Z,98592.88
2022-11-26T03:55:03.816Z,98588.56
2022-11-26T03:57:32.147Z,98598.16
2022-11-26T04:00:00.386Z,98599.13
2022-11-26T04:02:29.490Z,98599.94
2022-11-26T04:04:57.672Z,98594.66
2022-11-26T04:07:25.947Z,98599.94
2022-11-26T04:09:55.598Z,98603.56
2022-11-26T04:12:23.798Z,98604.41
2022-11-26T04:14:52.050Z,98603.56
2022-11-26T04:17:20.247Z,98604.53
2022-11-26T04:19:48.515Z,98610.66
2022-11-26T04:22:16.804Z,98611.50
2022-11-26T04:24:45.064Z,98604.53
2022-11-26T04:27:14.691Z,98615.94
2022-11-26T04:29:42.944Z,98618.59
2022-11-26T04:32:11.200Z,98622.19
2022-11-26T04:34:39.767Z,98630.03
2022-11-26T04:37:08.218Z,98631.81
2022-11-26T04:39:37.475Z,98643.34
2022-11-26T04:42:06.015Z,98647.69
2022-11-26T04:44:35.993Z,98643.34
2022-11-26T04:47:04.444Z,98646.13
2022-11-26T04:49:32.729Z,98647.09
2022-11-26T04:52:00.983Z,98659.44
2022-11-26T04:54:29.223Z,98664.75
2022-11-26T04:56:57.504Z,98665.59
2022-11-26T04:59:25.851Z,98673.66
2022-11-26T05:01:55.495Z,98672.69
2022-11-26T05:04:23.915Z,98681.47
2022-11-26T05:06:52.250Z,98681.69
2022-11-26T05:09:20.544Z,98682.28
2022-11-26T05:11:48.908Z,98686.66
2022-11-26T05:14:17.387Z,98682.19
2022-11-26T05:16:45.747Z,98684.00
2022-11-26T05:19:15.460Z,98691.81
2022-11-26T05:21:44.053Z,98694.59
2022-11-26T05:24:12.324Z,98690.97
2022-11-26T05:26:40.564Z,98688.22
2022-11-26T05:29:08.828Z,98698.78
2022-11-26T05:31:37.202Z,98698.78
2022-11-26T05:34:05.606Z,98698.69
2022-11-26T05:36:35.241Z,98700.47
2022-11-26T05:39:03.614Z,98701.31
2022-11-26T05:41:31.892Z,98711.78
2022-11-26T05:44:00.130Z,98707.34
2022-11-26T05:46:28.558Z,98714.31
2022-11-26T05:48:56.847Z,98718.66
2022-11-26T05:51:25.226Z,98718.66
2022-11-26T05:53:54.811Z,98723.94
2022-11-26T05:56:23.074Z,98710.81
2022-11-26T05:58:51.445Z,98716.00
2022-11-26T06:01:19.831Z,98718.66
2022-11-26T06:03:48.245Z,98722.25
2022-11-26T06:06:16.566Z,98720.59
2022-11-26T06:08:44.833Z,98718.88
2022-11-26T06:11:14.574Z,98726.09
2022-11-26T06:13:42.908Z,98731.41
2022-11-26T06:16:11.545Z,98736.69
2022-11-26T06:18:40.534Z,98735.09
2022-11-26T06:21:09.406Z,98743.97
2022-11-26T06:23:37.767Z,98739.53
2022-11-26T06:26:11.314Z,98743.13
2022-11-26T06:28:41.345Z,98744.94
2022-11-26T06:31:11.046Z,98749.38
2022-11-26T06:33:39.430Z,98752.25
2022-11-26T06:36:08.115Z,98743.47
2022-11-26T06:38:36.399Z,98739.13
2022-11-26T06:41:08.408Z,98747.19
2022-11-26T06:43:37.480Z,98737.56
2022-11-26T06:46:10.037Z,98751.72
2022-11-26T06:48:39.490Z,98755.22
2022-11-26T06:51:09.388Z,98762.41
2022-11-26T06:53:37.993Z,98765.06
2022-11-26T06:56:14.805Z,98774.81
2022-11-26T06:58:46.842Z,98774.81
2022-11-26T07:01:20.791Z,98785.50
2022-11-26T07:03:49.413Z,98788.03
2022-11-26T07:06:20.267Z,98782.00
2022-11-26T07:08:49.172Z,98784.53
2022-11-26T07:11:18.082Z,98785.41
2022-11-26T07:13:46.641Z,98787.19
2022-11-26T07:16:16.972Z,98790.78
2022-11-26T07:18:49.984Z,98789.81
2022-11-26T07:21:18.440Z,98797.75
2022-11-26T07:23:46.985Z,98803.91
2022-11-26T07:26:16.777Z,98805.69
2022-11-26T07:28:47.166Z,98812.56
2022-11-26T07:31:19.867Z,98814.38
2022-11-26T07:33:48.998Z,98811.72
2022-11-26T07:36:23.199Z,98809.91
2022-11-26T07:38:52.047Z,98803.69
2022-11-26T07:41:21.297Z,98815.09
2022-11-26T07:43:49.891Z,98818.47
2022-11-26T07:46:23.270Z,98818.38
2022-11-26T07:48:52.410Z,98816.47
2022-11-26T07:51:23.972Z,98822.47
2022-11-26T07:53:53.132Z,98819.63
2022-11-26T07:56:21.725Z,98819.41
2022-11-26T07:58:50.199Z,98822.69
2022-11-26T08:01:27.063Z,98821.59
2022-11-26T08:03:55.639Z,98820.56
2022-11-26T08:06:27.895Z,98822.13
2022-11-26T08:08:56.282Z,98825.53
2022-11-26T08:11:26.874Z,98830.59
2022-11-26T08:13:56.401Z,98834.81
2022-11-26T08:16:28.788Z,98836.38
2022-11-26T08:18:59.446Z,98832.53
2022-11-26T08:21:28.201Z,98836.06
2022-11-26T08:23:56.942Z,98839.44
2022-11-26T08:26:35.091Z,98835.81
2022-11-26T08:29:04.568Z,98834.75
2022-11-26T08:31:34.967Z,98832.75
2022-11-26T08:34:04.413Z,98845.75
2022-11-26T08:36:33.173Z,98842.13
2022-11-26T08:39:02.370Z,98846.38
2022-11-26T08:41:30.638Z,98854.09
2022-11-26T08:44:07.854Z,98859.19
2022-11-26T08:46:39.154Z,98864.25
2022-11-26T08:49:10.515Z,98868.47
2022-11-26T08:51:39.071Z,98872.69
2022-11-26T08:54:07.447Z,98865.38
2022-11-26T08:56:35.745Z,98874.88
2022-11-26T08:59:04.393Z,98872.88
2022-11-26T09:01:34.770Z,98872.75
2022-11-26T09:04:05.942Z,98877.81
2022-11-26T09:06:37.733Z,98880.94
2022-11-26T09:09:17.694Z,98884.34
2022-11-26T09:11:50.149Z,98883.38
2022-11-26T09:14:21.140Z,98890.16
2022-11-26T09:16:49.470Z,98892.59
2022-11-26T09:19:20.053Z,98890.75
2022-11-26T09:21:48.985Z,98894.91
2022-11-26T09:24:18.423Z,98892.03
2022-11-26T09:26:48.352Z,98893.59
2022-11-26T09:29:19.663Z,98893.47
2022-11-26T09:32:21.311Z,98901.94
2022-11-26T09:34:39.111Z,98902.69
2022-11-26T09:37:08.000Z,98907.88
2022-11-26T09:39:36.346Z,98911.16
2022-11-26T09:42:09.107Z,98898.63
2022-11-26T09:44:56.791Z,98891.50
2022-11-26T09:47:27.881Z,98902.00
2022-11-26T09:50:09.234Z,98905.38
2022-11-26T09:52:42.640Z,98899.75
2022-11-26T09:55:19.951Z,98903.97
2022-11-26T09:57:59.228Z,98910.81
2022-11-26T10:00:30.667Z,98899.97
2022-11-26T10:03:00.080Z,98907.59
2022-11-26T10:05:45.019Z,98908.44
2022-11-26T10:08:33.266Z,98910.75
2022-11-26T10:11:09.862Z,98909.06
2022-11-26T10:13:46.286Z,98909.78
2022-11-26T10:16:26.511Z,98910.63
2022-11-26T10:19:04.105Z,98913.28
2022-11-26T10:21:58.155Z,98909.78
2022-11-26T10:24:32.246Z,98916.06
2022-11-26T10:27:05.650Z,98920.28
2022-11-26T10:29:39.717Z,98915.94
2022-11-26T10:32:17.531Z,98914.16
2022-11-26T10:34:51.897Z,98914.03
2022-11-26T10:37:24.246Z,98910.41
2022-11-26T10:40:02.061Z,98911.16
2022-11-26T10:42:42.742Z,98912.09
2022-11-26T10:45:20.167Z,98911.03
2022-11-26T10:47:48.479Z,98910.78
2022-11-26T10:53:23.044Z,98903.91
2022-11-26T10:55:53.305Z,98909.81
2022-11-26T10:58:24.809Z,98901.88
2022-11-26T11:01:00.024Z,98900.78
2022-11-26T11:04:05.944Z,98899.97
2022-11-26T11:06:39.851Z,98905.25
2022-11-26T11:09:29.009Z,98899.09
2022-11-26T11:12:21.990Z,98902.72
2022-11-26T11:14:51.955Z,98897.31
2022-11-26T11:17:36.586Z,98890.28
2022-11-26T11:20:30.461Z,98893.91
2022-11-26T11:23:03.696Z,98895.47
2022-11-26T11:25:35.735Z,98889.34
2022-11-26T11:28:12.280Z,98892.72
2022-11-26T11:30:42.948Z,98889.94
2022-11-26T11:33:20.192Z,98895.13
2022-11-26T11:36:07.303Z,98888.13
2022-11-26T11:38:48.886Z,98895.13
2022-11-26T11:41:28.543Z,98894.31
2022-11-26T11:44:13.336Z,98892.34
2022-11-26T11:47:14.572Z,98890.69
2022-11-26T11:49:58.681Z,98885.38
2022-11-26T11:52:38.093Z,98879.09
2022-11-26T11:55:20.494Z,98878.28
2022-11-26T11:58:13.535Z,98887.06
2022-11-26T12:00:50.979Z,98873.66
2022-11-26T12:03:52.881Z,98877.06
2022-11-26T12:06:36.742Z,98878.63
2022-11-26T12:09:20.044Z,98879.34
2022-11-26T12:11:57.469Z,98879.94
2022-11-26T12:14:35.745Z,98877.06
2022-11-26T12:17:13.946Z,98878.66
2022-11-26T12:19:48.740Z,98869.59
2022-11-26T12:22:21.766Z,98882.63
2022-11-26T12:24:55.576Z,98877.19
2022-11-26T12:27:32.804Z,98879.72
2022-11-26T12:30:06.754Z,98883.34
2022-11-26T12:32:40.979Z,98886.59
2022-11-26T12:35:17.058Z,98889.97
2022-11-26T12:37:46.742Z,98893.25
2022-11-26T12:40:29.339Z,98888.78
2022-11-26T12:43:04.963Z,98889.50
2022-11-26T12:45:46.051Z,98891.91
2022-11-26T12:48:28.939Z,98888.16
2022-11-26T12:51:02.505Z,98891.69
2022-11-26T12:53:42.862Z,98887.94
2022-11-26T12:56:21.099Z,98894.09
2022-11-26T12:59:00.458Z,98900.25
2022-11-26T13:01:30.769Z,98893.97
2022-11-26T13:04:22.034Z,98894.78
2022-11-26T13:07:08.951Z,98898.44
2022-11-26T13:09:54.550Z,98898.53
2022-11-26T13:12:32.128Z,98901.19
2022-11-26T13:15:10.818Z,98905.81
2022-11-26T13:17:44.855Z,98892.53
2022-11-26T13:20:44.592Z,98900.50
2022-11-26T13:23:43.124Z,98892.91
2022-11-26T13:26:39.242Z,98900.75
2022-11-26T13:29:34.844Z,98905.19
2022-11-26T13:32:34.116Z,98900.84
2022-11-26T13:35:19.476Z,98900.00
2022-11-26T13:38:16.529Z,98898.31
2022-11-26T13:41:13.400Z,98896.72
2022-11-26T13:44:33.418Z,98910.13
2022-11-26T13:47:05.730Z,98899.50
2022-11-26T13:49:39.022Z,98906.53
2022-11-26T13:52:15.155Z,98903.00
2022-11-26T13:54:51.160Z,98897.72
2022-11-26T13:57:25.444Z,98900.97
2022-11-26T13:59:56.651Z,98900.84
2022-11-26T14:02:47.423Z,98905.19
2022-11-26T14:05:17.537Z,98904.94
2022-11-26T14:07:47.807Z,98904.72
2022-11-26T14:10:44.356Z,98913.66
2022-11-26T14:13:17.502Z,98915.31
2022-11-26T14:16:00.128Z,98916.19
2022-11-26T14:19:00.726Z,98922.31
2022-11-26T14:21:31.174Z,98921.50
2022-11-26T14:24:02.492Z,98908.94
2022-11-26T14:26:37.339Z,98914.22
2022-11-26T14:29:17.509Z,98915.91
2022-11-26T14:31:52.135Z,98919.53
2022-11-26T14:34:27.189Z,98911.56
2022-11-26T14:36:58.708Z,98915.22
2022-11-26T14:39:29.277Z,98920.63
2022-11-26T14:42:05.507Z,98917.25
2022-11-26T14:44:34.746Z,98921.84
2022-11-26T14:47:12.375Z,98918.56
2022-11-26T14:49:46.854Z,98920.38
2022-11-26T14:52:23.119Z,98915.53
2022-11-26T14:54:57.645Z,98918.44
2022-11-26T14:57:31.872Z,98926.63
2022-11-26T15:00:03.001Z,98929.75
2022-11-26T15:02:32.941Z,98937.94
2022-11-26T15:05:15.250Z,98933.13
2022-11-26T15:07:43.988Z,98927.47
2022-11-26T15:10:23.143Z,98929.47
2022-11-26T15:12:53.745Z,98929.72
2022-11-26T15:15:24.821Z,98932.94
2022-11-26T15:17:57.778Z,98932.34
2022-11-26T15:20:26.538Z,98932.81
2022-11-26T15:22:57.508Z,98930.50
2022-11-26T15:25:30.367Z,98930.00
2022-11-26T15:28:01.217Z,98939.97
2022-11-26T15:30:31.926Z,98936.84
2022-11-26T15:33:03.448Z,98939.72
2022-11-26T15:35:33.327Z,98934.88
2022-11-26T15:38:01.993Z,98936.19
2022-11-26T15:40:45.467Z,98936.50
2022-11-26T15:43:22.816Z,98931.66
2022-11-26T15:45:53.425Z,98938.09
2022-11-26T15:48:36.355Z,98939.19
2022-11-26T15:51:17.694Z,98944.06
2022-11-26T15:53:49.250Z,98945.16
2022-11-26T15:56:21.233Z,98944.53
2022-11-26T15:58:53.704Z,98944.84
2022-11-26T16:03:53.745Z,98949.03
2022-11-26T16:06:34.596Z,98952.00
2022-11-26T16:09:26.324Z,98955.94
2022-11-26T16:12:01.799Z,98958.28
2022-11-26T16:14:36.405Z,98952.50
2022-11-26T16:17:11.322Z,98952.06
2022-11-26T16:19:46.078Z,98955.16
2022-11-26T16:22:17.850Z,98950.19
2022-11-26T16:24:46.611Z,98945.31
2022-11-26T16:27:30.496Z,98950.22
2022-11-26T16:29:59.424Z,98947.88
2022-11-26T16:32:27.706Z,98960.47
2022-11-26T16:34:56.006Z,98946.69
2022-11-26T16:37:26.922Z,98958.34
2022-11-26T16:40:02.793Z,98955.06
2022-11-26T16:42:33.628Z,98955.06
2022-11-26T16:45:04.344Z,98963.09
2022-11-26T16:47:36.123Z,98958.78
2022-11-26T16:50:05.757Z,98960.44
2022-11-26T16:52:36.472Z,98955.28
2022-11-26T16:55:05.243Z,98959.75
2022-11-26T16:57:35.000Z,98960.78
2022-11-26T17:00:06.904Z,98963.53
2022-11-26T17:02:35.474Z,98958.22
2022-11-26T17:05:04.857Z,98961.75
2022-11-26T17:07:40.517Z,98964.38
2022-11-26T17:10:15.498Z,98961.84
2022-11-26T17:12:45.586Z,98960.06
2022-11-26T17:15:14.345Z,98961.94
2022-11-26T17:17:43.279Z,98958.44
2022-11-26T17:20:19.131Z,98958.53
2022-11-26T17:22:48.015Z,98961.28
2022-11-26T17:25:16.673Z,98955.38
2022-11-26T17:27:47.313Z,98956.47
2022-11-26T17:30:18.905Z,98950.69
2022-11-26T17:32:47.436Z,98950.25
2022-11-26T17:35:16.140Z,98947.09
2022-11-26T17:37:44.831Z,98952.78
2022-11-26T17:40:18.717Z,98952.16
2022-11-26T17:42:48.864Z,98956.06
2022-11-26T17:45:18.411Z,98950.13
2022-11-26T17:47:47.446Z,98958.34
2022-11-26T17:50:21.314Z,98960.34
2022-11-26T17:52:50.645Z,98964.16
2022-11-26T17:55:20.237Z,98963.41
2022-11-26T17:57:50.391Z,98966.38
2022-11-26T18:00:21.885Z,98967.38
2022-11-26T18:02:50.289Z,98963.25
2022-11-26T18:05:18.866Z,98966.97
2022-11-26T18:07:47.693Z,98967.28
2022-11-26T18:10:18.739Z,98972.84
2022-11-26T18:12:47.164Z,98973.34
2022-11-26T18:15:21.330Z,98977.22
2022-11-26T18:17:51.527Z,98977.50
2022-11-26T18:20:22.448Z,98986.78
2022-11-26T18:22:52.854Z,98990.75
2022-11-26T18:25:21.358Z,98985.00
2022-11-26T18:27:49.820Z,98994.84
2022-11-26T18:30:20.860Z,98997.75
2022-11-26T18:32:49.270Z,99002.47
2022-11-26T18:35:18.035Z,99006.06
2022-11-26T18:37:46.345Z,99003.72
2022-11-26T18:40:18.015Z,98997.75
2022-11-26T18:42:46.832Z,98998.72
2022-11-26T18:45:16.868Z,98998.91
2022-11-26T18:47:46.549Z,98995.50
2022-11-26T18:50:14.870Z,99003.50
2022-11-26T18:52:43.236Z,99004.47
2022-11-26T18:55:14.234Z,99010.69
2022-11-26T18:57:42.562Z,99011.72
2022-11-26T19:00:12.429Z,99002.22
2022-11-26T19:02:40.752Z,99013.91
2022-11-26T19:05:11.410Z,99015.00
2022-11-26T19:07:40.330Z,99013.59
2022-11-26T19:10:10.225Z,99011.41
2022-11-26T19:12:38.645Z,99012.81
2022-11-26T19:15:08.363Z,99014.00
2022-11-26T19:17:36.707Z,99011.56
2022-11-26T19:20:06.378Z,99017.03
2022-11-26T19:22:36.139Z,99011.84
2022-11-26T19:25:04.614Z,99024.19
2022-11-26T19:27:32.969Z,99020.78
2022-11-26T19:30:01.300Z,99018.03
2022-11-26T19:32:29.931Z,99013.63
2022-11-26T19:35:02.653Z,99017.13
2022-11-26T19:37:35.417Z,99014.59
2022-11-26T19:40:04.366Z,99022.50
2022-11-26T19:42:32.759Z,99021.63
2022-11-26T19:45:01.083Z,99017.22
2022-11-26T19:47:29.377Z,99023.41
2022-11-26T19:49:57.699Z,99019.00
2022-11-26T19:52:25.960Z,99021.63
2022-11-26T19:54:55.631Z,99026.91
2022-11-26T19:57:24.139Z,99014.59
2022-11-26T19:59:52.665Z,99012.69
2022-11-26T20:02:20.986Z,99009.13
2022-11-26T20:04:49.312Z,99007.31
2022-11-26T20:07:17.843Z,99008.91
2022-11-26T20:09:46.215Z,99002.72
2022-11-26T20:12:15.992Z,98999.13
2022-11-26T20:14:44.374Z,98991.13
2022-11-26T20:17:12.912Z,98993.69
2022-11-26T20:19:41.566Z,98992.72
2022-11-26T20:22:10.326Z,98996.13
2022-11-26T20:24:38.710Z,98988.91
2022-11-26T20:27:07.120Z,98987.94
2022-11-26T20:29:36.916Z,98986.06
2022-11-26T20:32:05.470Z,98990.28
2022-11-26T20:34:33.978Z,98996.34
2022-11-26T20:37:03.466Z,98993.59
2022-11-26T20:39:31.936Z,98985.59
2022-11-26T20:42:00.237Z,98982.00
2022-11-26T20:44:28.658Z,98986.28
2022-11-26T20:46:58.330Z,98976.59
2022-11-26T20:49:30.780Z,98976.50
2022-11-26T20:52:01.939Z,98972.06
2022-11-26T20:54:30.207Z,98969.34
2022-11-26T20:56:58.674Z,98963.19
2022-11-26T20:59:27.181Z,98961.34
2022-11-26T21:01:56.987Z,98969.16
2022-11-26T21:04:25.338Z,98955.88
2022-11-26T21:06:53.642Z,98969.78
2022-11-26T21:09:21.961Z,98969.69
2022-11-26T21:11:50.229Z,98960.84
2022-11-26T21:14:18.500Z,98964.31
2022-11-26T21:16:46.814Z,98974.78
2022-11-26T21:19:16.575Z,98974.69
2022-11-26T21:21:44.799Z,98971.13
2022-11-26T21:24:14.527Z,98970.16
2022-11-26T21:26:42.763Z,98971.94
2022-11-26T21:29:11.102Z,98957.06
2022-11-26T21:31:40.140Z,98963.94
2022-11-26T21:34:09.549Z,98956.97
2022-11-26T21:36:39.287Z,98955.19
2022-11-26T21:39:07.592Z,98950.75
2022-11-26T21:41:35.883Z,98947.16
2022-11-26T21:44:04.412Z,98948.00
2022-11-26T21:46:37.813Z,98953.19
2022-11-26T21:49:07.260Z,98941.78
2022-11-26T21:51:35.614Z,98949.69
2022-11-26T21:54:05.823Z,98946.22
2022-11-26T21:56:34.488Z,98941.69
2022-11-26T21:59:03.401Z,98947.81
2022-11-26T22:04:12.093Z,98942.53
2022-11-26T22:06:40.991Z,98947.81
2022-11-26T22:09:11.181Z,98955.75
2022-11-26T22:11:42.403Z,98952.25
2022-11-26T22:14:14.799Z,98950.56
2022-11-26T22:16:43.797Z,98953.19
2022-11-26T22:19:12.133Z,98958.47
2022-11-26T22:21:42.575Z,98951.50
2022-11-26T22:24:16.883Z,98956.88
2022-11-26T22:26:45.915Z,98949.06
2022-11-26T22:29:16.874Z,98952.66
2022-11-26T22:31:45.739Z,98954.53
2022-11-26T22:34:16.026Z,98952.19
2022-11-26T22:36:45.634Z,98956.59
2022-11-26T22:39:18.157Z,98961.97
2022-11-26T22:41:47.931Z,98956.78
2022-11-26T22:44:17.305Z,98970.94
2022-11-26T22:46:46.090Z,98965.84
2022-11-26T22:49:17.807Z,98971.31
2022-11-26T22:51:47.404Z,98961.72
2022-11-26T22:54:19.175Z,98976.75
2022-11-26T22:56:47.932Z,98971.66
2022-11-26T22:59:16.274Z,98972.59
2022-11-26T23:01:44.650Z,98971.84
2022-11-26T23:04:13.241Z,98966.75
2022-11-26T23:06:41.615Z,98972.13
2022-11-26T23:09:13.406Z,98965.25
2022-11-26T23:11:44.514Z,98969.75
2022-11-26T23:14:12.961Z,98967.22
2022-11-26T23:16:43.279Z,98969.19
2022-11-26T23:19:15.225Z,98969.28
2022-11-26T23:21:44.844Z,98964.19
2022-11-26T23:24:15.417Z,98965.22
2022-11-26T23:26:46.255Z,98954.88
2022-11-26T23:29:15.236Z,98954.13
2022-11-26T23:31:45.802Z,98949.88
2022-11-26T23:34:14.966Z,98944.69
2022-11-26T23:36:43.821Z,98935.28
2022-11-26T23:39:13.696Z,98941.59
2022-11-26T23:41:42.042Z,98947.88
2022-11-26T23:44:11.786Z,98934.97
2022-11-26T23:46:40.183Z,98939.63
2022-11-26T23:49:08.541Z,98931.03
2022-11-26T23:51:36.836Z,98938.25
2022-11-26T23:54:05.460Z,98933.34
2022-11-26T23:56:35.727Z,98936.38
2022-11-26T23:59:05.607Z,98935.88
